createdAt,value
2022-08-07T00:01:44.370Z,8.15
2022-08-07T00:04:11.234Z,8.00
2022-08-07T00:06:51.562Z,7.63
2022-08-07T00:09:22.295Z,7.95
2022-08-07T00:11:56.196Z,8.00
2022-08-07T00:14:31.304Z,7.20
2022-08-07T00:17:01.590Z,8.07
2022-08-07T00:20:00.380Z,6.80
2022-08-07T00:22:24.945Z,7.25
2022-08-07T00:25:07.126Z,7.65
2022-08-07T00:27:53.498Z,8.15
2022-08-07T00:30:27.526Z,7.78
2022-08-07T00:32:58.396Z,9.10
2022-08-07T00:35:29.869Z,7.43
2022-08-07T00:37:59.441Z,7.43
2022-08-07T00:40:39.011Z,7.38
2022-08-07T00:44:01.889Z,7.20
2022-08-07T00:46:03.079Z,7.25
2022-08-07T00:48:32.649Z,7.40
2022-08-07T00:51:02.979Z,7.53
2022-08-07T00:53:38.377Z,8.05
2022-08-07T00:56:13.991Z,8.13
2022-08-07T00:58:46.973Z,7.25
2022-08-07T01:01:21.148Z,8.48
2022-08-07T01:03:55.419Z,7.82
2022-08-07T01:06:29.682Z,7.88
2022-08-07T01:09:00.950Z,6.65
2022-08-07T01:12:09.181Z,7.28
2022-08-07T01:14:28.273Z,7.45
2022-08-07T01:16:58.587Z,7.63
2022-08-07T01:19:32.460Z,7.32
2022-08-07T01:22:03.428Z,7.90
2022-08-07T01:24:37.984Z,7.50
2022-08-07T01:27:06.922Z,7.25
2022-08-07T01:29:50.748Z,7.75
2022-08-07T01:32:22.496Z,7.90
2022-08-07T01:34:52.635Z,7.60
2022-08-07T01:37:23.092Z,7.80
2022-08-07T01:39:52.880Z,7.40
2022-08-07T01:42:39.262Z,7.32
2022-08-07T01:45:18.329Z,7.35
2022-08-07T01:48:20.292Z,7.30
2022-08-07T01:50:43.254Z,7.00
2022-08-07T01:53:20.875Z,7.15
2022-08-07T01:55:56.802Z,6.88
2022-08-07T01:58:33.315Z,7.32
2022-08-07T02:01:25.312Z,7.05
2022-08-07T02:04:01.376Z,7.70
2022-08-07T02:06:34.195Z,7.43
2022-08-07T02:09:07.643Z,7.65
2022-08-07T02:12:03.914Z,7.45
2022-08-07T02:14:40.387Z,7.20
2022-08-07T02:17:24.888Z,6.68
2022-08-07T02:20:06.688Z,7.35
2022-08-07T02:22:41.160Z,6.95
2022-08-07T02:25:18.072Z,7.43
2022-08-07T02:27:52.199Z,7.28
2022-08-07T02:30:22.671Z,7.72
2022-08-07T02:33:00.451Z,7.00
2022-08-07T02:36:27.105Z,7.30
2022-08-07T02:38:31.838Z,6.57
2022-08-07T02:41:03.791Z,7.38
2022-08-07T02:43:35.040Z,7.13
2022-08-07T02:46:08.962Z,6.65
2022-08-07T02:48:37.609Z,7.05
2022-08-07T02:51:14.421Z,6.97
2022-08-07T02:54:02.059Z,7.00
2022-08-07T02:56:34.466Z,6.50
2022-08-07T02:59:07.191Z,7.18
2022-08-07T03:01:40.077Z,7.03
2022-08-07T03:04:12.863Z,6.78
2022-08-07T03:06:44.577Z,6.88
2022-08-07T03:09:15.102Z,6.65
2022-08-07T03:12:06.663Z,6.85
2022-08-07T03:14:38.180Z,6.72
2022-08-07T03:17:08.983Z,6.97
2022-08-07T03:19:38.016Z,6.35
2022-08-07T03:22:19.040Z,6.60
2022-08-07T03:24:48.232Z,6.28
2022-08-07T03:27:30.413Z,6.35
2022-08-07T03:30:08.929Z,6.30
2022-08-07T03:32:49.118Z,6.60
2022-08-07T03:35:37.971Z,6.50
2022-08-07T03:38:15.545Z,5.45
2022-08-07T03:40:45.047Z,6.20
2022-08-07T03:45:55.552Z,5.75
2022-08-07T03:48:24.692Z,5.80
2022-08-07T03:50:57.706Z,6.10
2022-08-07T03:54:00.653Z,5.78
2022-08-07T03:56:33.372Z,6.15
2022-08-07T03:59:09.786Z,6.10
2022-08-07T04:01:45.230Z,6.07
2022-08-07T04:04:18.117Z,6.00
2022-08-07T04:06:51.032Z,5.13
2022-08-07T04:09:23.126Z,5.70
2022-08-07T04:12:24.570Z,6.05
2022-08-07T04:14:46.219Z,5.35
2022-08-07T04:17:20.701Z,5.32
2022-08-07T04:19:52.290Z,5.25
2022-08-07T04:22:29.330Z,5.47
2022-08-07T04:25:00.962Z,5.35
2022-08-07T04:27:35.543Z,5.45
2022-08-07T04:30:13.433Z,5.60
2022-08-07T04:32:58.219Z,6.00
2022-08-07T04:35:28.680Z,5.85
2022-08-07T04:38:07.844Z,5.65
2022-08-07T04:40:51.362Z,5.75
2022-08-07T04:44:10.325Z,5.35
2022-08-07T04:46:34.489Z,5.22
2022-08-07T04:49:18.334Z,5.30
2022-08-07T04:52:02.872Z,5.50
2022-08-07T04:54:36.952Z,5.73
2022-08-07T04:58:16.216Z,4.65
2022-08-07T05:00:14.337Z,5.63
2022-08-07T05:03:00.119Z,5.80
2022-08-07T05:05:51.681Z,5.40
2022-08-07T05:08:59.915Z,5.32
2022-08-07T05:11:24.302Z,5.45
2022-08-07T05:14:56.259Z,5.40
2022-08-07T05:16:53.038Z,5.57
2022-08-07T05:19:25.661Z,5.45
2022-08-07T05:22:26.644Z,5.25
2022-08-07T05:24:59.576Z,5.53
2022-08-07T05:28:16.273Z,5.30
2022-08-07T05:30:32.661Z,5.78
2022-08-07T05:33:03.498Z,5.10
2022-08-07T05:35:41.706Z,4.88
2022-08-07T05:39:00.420Z,5.40
2022-08-07T05:41:12.455Z,5.05
2022-08-07T05:44:08.136Z,5.13
2022-08-07T05:46:41.344Z,5.05
2022-08-07T05:49:14.466Z,4.82
2022-08-07T05:52:07.571Z,4.60
2022-08-07T05:57:59.894Z,4.82
2022-08-07T06:00:36.942Z,5.40
2022-08-07T06:07:03.667Z,5.45
2022-08-07T06:12:33.149Z,5.82
2022-08-07T06:15:07.134Z,5.20
2022-08-07T06:17:37.980Z,6.25
2022-08-07T06:20:12.840Z,5.70
2022-08-07T06:23:24.660Z,5.70
2022-08-07T06:25:54.740Z,5.63
2022-08-07T06:28:28.645Z,5.50
2022-08-07T06:30:58.547Z,5.30
2022-08-07T06:33:27.465Z,5.63
2022-08-07T06:36:13.089Z,5.65
2022-08-07T06:40:12.640Z,5.13
2022-08-07T06:44:50.867Z,5.28
2022-08-07T06:47:27.333Z,5.50
2022-08-07T06:49:58.297Z,5.63
2022-08-07T06:52:35.645Z,5.05
2022-08-07T06:55:33.207Z,5.68
2022-08-07T06:58:29.497Z,5.47
2022-08-07T07:01:04.554Z,5.45
2022-08-07T07:04:04.256Z,5.38
2022-08-07T07:08:00.074Z,5.40
2022-08-07T07:10:18.123Z,5.35
2022-08-07T07:13:13.863Z,5.38
2022-08-07T07:15:51.466Z,5.75
2022-08-07T07:18:47.073Z,5.53
2022-08-07T07:21:20.689Z,5.03
2022-08-07T07:26:52.341Z,4.82
2022-08-07T07:30:09.364Z,4.28
2022-08-07T07:38:24.175Z,4.70
2022-08-07T07:41:05.081Z,4.70
2022-08-07T08:06:25.286Z,5.00
2022-08-07T09:03:13.125Z,3.58
2022-08-07T09:05:57.706Z,3.63
2022-08-07T09:08:40.107Z,3.70
2022-08-07T09:11:43.720Z,3.38
2022-08-07T09:14:50.569Z,3.38
2022-08-07T09:17:58.966Z,3.30
2022-08-07T09:20:58.020Z,3.55
2022-08-07T09:36:50.032Z,3.90
2022-08-07T09:39:55.163Z,3.85
2022-08-07T09:42:57.431Z,3.83
2022-08-07T09:47:24.968Z,4.22
2022-08-07T09:52:15.631Z,4.50
2022-08-07T09:54:48.786Z,4.05
2022-08-07T09:58:02.441Z,4.20
2022-08-07T10:00:41.043Z,4.13
2022-08-07T10:04:05.083Z,3.95
2022-08-07T10:06:55.865Z,3.58
2022-08-07T10:12:52.972Z,3.90
2022-08-07T10:15:44.407Z,3.75
2022-08-07T10:18:48.893Z,3.53
2022-08-07T10:22:14.363Z,3.60
2022-08-07T10:24:46.442Z,2.95
2022-08-07T10:27:46.674Z,2.72
2022-08-07T10:30:20.531Z,2.85
2022-08-07T10:33:23.643Z,2.55
2022-08-07T10:36:29.579Z,2.60
2022-08-07T10:41:46.937Z,2.60
2022-08-07T10:44:37.613Z,2.80
2022-08-07T10:47:27.243Z,2.53
2022-08-07T10:50:25.974Z,2.17
2022-08-07T10:53:07.974Z,2.45
2022-08-07T10:55:48.210Z,2.25
2022-08-07T10:58:40.295Z,2.33
2022-08-07T11:01:51.173Z,2.10
2022-08-07T11:04:50.021Z,2.33
2022-08-07T11:08:00.804Z,2.40
2022-08-07T11:14:45.485Z,1.90
2022-08-07T11:19:27.492Z,1.80
2022-08-07T11:22:26.664Z,2.10
2022-08-07T11:25:19.817Z,2.00
2022-08-07T11:44:11.346Z,4.85
2022-08-07T11:46:50.723Z,3.63
2022-08-07T11:50:18.590Z,5.55
2022-08-07T12:00:10.445Z,4.43
2022-08-07T12:03:44.324Z,4.30
2022-08-07T12:06:37.980Z,5.18
2022-08-07T12:09:16.539Z,4.70
2022-08-07T12:15:17.032Z,4.05
2022-08-07T12:17:59.386Z,3.55
2022-08-07T12:58:00.208Z,3.20
2022-08-07T13:00:50.587Z,3.53
2022-08-07T13:07:00.407Z,2.80
2022-08-07T13:10:18.962Z,3.90
2022-08-07T13:13:03.417Z,4.22
2022-08-07T13:15:43.170Z,3.67
2022-08-07T13:18:29.082Z,4.47
2022-08-07T13:21:14.336Z,4.13
2022-08-07T13:24:11.480Z,3.35
2022-08-07T13:26:46.349Z,3.83
2022-08-07T13:29:28.513Z,2.60
2022-08-07T13:32:31.160Z,3.60
2022-08-07T13:35:08.818Z,3.30
2022-08-07T13:37:58.486Z,3.90
2022-08-07T13:43:23.512Z,3.35
2022-08-07T14:01:26.825Z,3.05
2022-08-07T14:04:06.964Z,2.72
2022-08-07T14:06:39.280Z,2.80
2022-08-07T14:09:17.188Z,2.67
2022-08-07T14:12:04.864Z,2.70
2022-08-07T14:14:43.465Z,2.83
2022-08-07T14:17:51.601Z,3.13
2022-08-07T14:20:42.346Z,3.15
2022-08-07T14:23:09.193Z,2.88
2022-08-07T14:28:55.650Z,3.05
2022-08-07T14:31:12.243Z,2.80
2022-08-07T14:33:45.004Z,2.90
2022-08-07T14:36:15.332Z,2.97
2022-08-07T14:38:50.665Z,2.63
2022-08-07T14:41:34.220Z,2.50
2022-08-07T14:44:17.935Z,2.70
2022-08-07T14:49:56.818Z,2.90
2022-08-07T14:52:34.323Z,2.92
2022-08-07T14:55:04.116Z,2.55
2022-08-07T15:00:30.587Z,3.53
2022-08-07T15:03:18.821Z,3.08
2022-08-07T15:05:54.697Z,3.03
2022-08-07T15:08:35.438Z,3.05
2022-08-07T15:14:19.897Z,3.20
2022-08-07T15:16:55.042Z,2.88
2022-08-07T15:20:30.363Z,3.20
2022-08-07T15:22:31.204Z,3.20
2022-08-07T15:25:18.335Z,3.25
2022-08-07T15:28:30.970Z,3.30
2022-08-07T15:36:26.293Z,3.47
2022-08-07T15:39:16.171Z,3.40
2022-08-07T15:42:46.181Z,3.90
2022-08-07T15:44:51.919Z,3.40
2022-08-07T15:48:00.707Z,3.05
2022-08-07T15:50:38.023Z,4.05
2022-08-07T15:53:12.928Z,3.35
2022-08-07T15:56:01.994Z,3.47
2022-08-07T15:58:39.020Z,3.30
2022-08-07T16:01:20.506Z,3.35
2022-08-07T16:03:58.209Z,3.70
2022-08-07T16:06:32.643Z,3.92
2022-08-07T16:09:04.547Z,3.47
2022-08-07T16:12:04.955Z,3.28
2022-08-07T16:14:46.177Z,3.65
2022-08-07T16:18:01.551Z,4.20
2022-08-07T16:20:42.991Z,4.18
2022-08-07T16:23:53.614Z,4.13
2022-08-07T16:26:59.658Z,3.50
2022-08-07T16:30:09.541Z,3.83
2022-08-07T16:32:46.212Z,4.25
2022-08-07T16:35:56.540Z,4.55
2022-08-07T16:39:00.037Z,3.85
2022-08-07T16:41:54.122Z,6.97
2022-08-07T16:45:14.902Z,3.92
2022-08-07T16:49:04.374Z,3.70
2022-08-07T16:52:01.704Z,5.45
2022-08-07T16:54:38.691Z,3.80
2022-08-07T16:58:02.781Z,4.43
2022-08-07T17:00:29.815Z,3.92
2022-08-07T17:03:18.033Z,3.70
2022-08-07T17:06:19.636Z,4.00
2022-08-07T17:09:09.684Z,5.90
2022-08-07T17:12:05.229Z,4.40
2022-08-07T17:14:46.470Z,4.13
2022-08-07T17:17:46.109Z,4.10
2022-08-07T17:20:29.759Z,4.53
2022-08-07T17:23:08.768Z,11.52
2022-08-07T17:25:57.240Z,4.30
2022-08-07T17:28:35.383Z,4.38
2022-08-07T17:31:16.073Z,4.53
2022-08-07T17:34:32.874Z,7.70
2022-08-07T17:36:57.780Z,4.65
2022-08-07T17:39:58.413Z,5.40
2022-08-07T17:42:59.916Z,5.00
2022-08-07T17:45:35.054Z,5.35
2022-08-07T17:48:10.414Z,5.05
2022-08-07T17:50:58.530Z,5.05
2022-08-07T17:54:00.208Z,5.03
2022-08-07T17:56:30.305Z,6.18
2022-08-07T17:59:17.165Z,5.00
2022-08-07T18:01:56.829Z,5.50
2022-08-07T18:04:35.193Z,4.95
2022-08-07T18:07:20.321Z,4.80
2022-08-07T18:10:07.377Z,5.07
2022-08-07T18:13:16.737Z,5.53
2022-08-07T18:16:06.240Z,4.97
2022-08-07T18:21:10.554Z,5.38
2022-08-07T18:21:55.078Z,4.95
2022-08-07T18:24:34.499Z,5.82
2022-08-07T18:27:26.181Z,5.57
2022-08-07T18:30:31.545Z,5.75
2022-08-07T18:33:30.516Z,5.68
2022-08-07T18:36:14.179Z,6.10
2022-08-07T18:38:57.225Z,6.00
2022-08-07T18:41:46.395Z,6.18
2022-08-07T18:44:28.292Z,5.88
2022-08-07T18:47:07.226Z,6.30
2022-08-07T18:50:30.814Z,5.40
2022-08-07T18:53:06.461Z,4.93
2022-08-07T18:55:59.889Z,4.78
2022-08-07T18:58:42.800Z,4.93
2022-08-07T19:02:18.750Z,5.97
2022-08-07T19:04:35.284Z,5.28
2022-08-07T19:07:14.115Z,5.85
2022-08-07T19:09:55.767Z,5.40
2022-08-07T19:12:35.515Z,5.72
2022-08-07T19:16:04.497Z,5.10
2022-08-07T19:18:35.040Z,5.07
2022-08-07T19:21:42.770Z,4.70
2022-08-07T19:24:03.757Z,5.05
2022-08-07T19:28:28.388Z,4.60
2022-08-07T19:31:04.381Z,4.72
2022-08-07T19:32:27.246Z,4.82
2022-08-07T19:35:03.359Z,5.07
2022-08-07T19:37:55.645Z,5.30
2022-08-07T19:40:36.036Z,5.13
2022-08-07T19:43:21.644Z,5.10
2022-08-07T19:46:10.161Z,6.20
2022-08-07T19:51:53.254Z,5.60
2022-08-07T19:54:32.103Z,5.32
2022-08-07T19:58:00.719Z,6.03
2022-08-07T20:00:08.833Z,5.70
2022-08-07T20:02:51.675Z,6.00
2022-08-07T20:05:25.375Z,5.32
2022-08-07T20:08:01.917Z,5.43
2022-08-07T20:10:54.716Z,5.55
2022-08-07T20:13:35.810Z,5.80
2022-08-07T20:16:07.885Z,5.90
2022-08-07T20:18:47.777Z,6.07
2022-08-07T20:21:23.170Z,6.18
2022-08-07T20:24:01.605Z,6.13
2022-08-07T20:26:44.994Z,6.18
2022-08-07T20:29:48.031Z,8.85
2022-08-07T20:32:23.065Z,15.43
2022-08-07T20:35:07.830Z,13.30
2022-08-07T21:24:40.312Z,7.88
2022-08-07T21:40:50.432Z,8.52
2022-08-07T21:43:47.196Z,7.93
2022-08-07T21:46:31.608Z,7.90
2022-08-07T21:49:17.625Z,8.65
2022-08-07T21:52:11.515Z,7.28
2022-08-07T21:54:57.450Z,7.55
2022-08-07T21:57:51.982Z,9.65
2022-08-07T22:03:31.093Z,9.00
2022-08-07T22:12:20.808Z,8.95
2022-08-07T22:16:44.426Z,8.93
2022-08-07T22:18:12.987Z,9.05
2022-08-07T22:26:56.659Z,10.13
2022-08-07T22:29:51.493Z,9.88
2022-08-07T22:33:51.041Z,13.02
2022-08-07T22:36:38.427Z,9.27
2022-08-07T22:39:24.245Z,8.73
2022-08-07T22:42:19.871Z,8.13
2022-08-07T22:45:11.045Z,8.68
2022-08-07T23:10:05.361Z,14.98
2022-08-07T23:13:03.117Z,14.75
2022-08-07T23:16:05.363Z,13.70
2022-08-07T23:19:14.144Z,13.73
2022-08-07T23:21:52.602Z,12.82
2022-08-07T23:24:38.757Z,12.07
2022-08-07T23:28:22.618Z,13.50
2022-08-07T23:31:06.802Z,13.18
2022-08-07T23:34:35.633Z,13.57
2022-08-07T23:40:09.002Z,13.45
2022-08-07T23:42:54.657Z,14.25
2022-08-07T23:46:02.460Z,15.90
2022-08-07T23:48:44.883Z,15.73
2022-08-07T23:53:00.637Z,18.48
2022-08-07T23:54:36.160Z,16.42
2022-08-07T23:57:27.571Z,18.23
